KDUJ/DUJ METAR and TAF weather

Enter ICAO airport designator
Station Type Date Time Source
KDUJ METAR 2018/12/10 23:53 UTC NOAA

KDUJ 102353Z AUTO 30003KT 10SM OVC017 M03/M07 A3012 RMK AO2 SLP223 T10281072 11017 21028 51006


Station Type Date Time Source
KDUJ Decoded METAR 2018/12/10 23:53 UTC NOAA

DU BOIS-JEFFERSON COUNTY, PA, United States (KDUJ) 41-11N 078-53W
Dec 10, 2018 - 06:53 PM EST / 2018.12.10 2353 UTC
Wind: from the WNW (300 degrees) at 3 MPH (3 KT):0
Visibility: 10 mile(s):0
Sky conditions: overcast
Temperature: 27.0 F (-2.8 C)
Dew Point: 19.0 F (-7.2 C)
Relative Humidity: 71%
Pressure (altimeter): 30.12 in. Hg (1019 hPa)
Pressure tendency: 0.02 inches (0.6 hPa) higher than three hours ago
ob: KDUJ 102353Z AUTO 30003KT 10SM OVC017 M03/M07 A3012 RMK AO2 SLP223 T10281072 11017 21028 51006
cycle: 0

Station Type Date Time Source
KDUJ TAF 2018/12/10 21:06 UTC NOAA

TAF
AMD KDUJ 102105Z 1021/1118 34003KT P6SM OVC020
FM110300 24005KT P6SM OVC015
FM110800 22005KT P6SM BKN006
FM111500 23007KT P6SM BKN010


Example: see airport list